HOURLY OBS INDEX

061

Hunter

CESSNOCK AIRPORT AWS

Site: 061260
Alt: 61.0m
30km SSE of SINGLETON


  Time     Wind        Temp  DP   Baro     Rain since   Rain past  Vis(m), Cloud(base in m), Weather
  local        km/h                         9am  last   hr   10m    
Sun 09:00    C  0/  0  11.2  6.3  1019.5    0.0   0.0   0.0   0.0   ----- 
Sun 09:30   NE  2/  7  14.1  7.4  1019.5    0.0   0.0   0.0   0.0   ----- 
Sun 10:00   NE  4/  9  15.7  7.7  1019.2    0.0   0.0   0.0   0.0   ----- 
Sun 10:30    N  6/ 11  16.8  7.7  1018.6    0.0   0.0   0.0   0.0   ----- 
Sun 11:00    N  9/ 15  17.5  7.8  1017.9    0.0   0.0   0.0   0.0   ----- 
Sun 11:30   NE  6/ 11  19.2  7.9  1017.3    0.0   0.0   0.0   0.0   ----- 
Sun 12:00   NE 11/ 15  19.4  7.2  1016.7    0.0   0.0   0.0   0.0   ----- 
Sun 12:30    E  6/ 24  20.6  6.9  1015.7    0.0   0.0   0.0   0.0   ----- 
Sun 13:00  NNE 11/ 17  21.8  6.5  1015.0    0.0   0.0   0.0   0.0   ----- 
Sun 13:30    N 11/ 15  21.8  5.3  1014.1    0.0   0.0   0.0   0.0   ----- 
Sun 14:00  NNE  9/ 17  22.7  6.0  1013.5    0.0   0.0   0.0   0.0   ----- 
Sun 14:30   NE 11/ 19  23.3  5.7  1012.9    0.0   0.0   0.0   0.0   ----- 

COORANBONG (LAKE MACQUARIE AWS)

Site: 061412
Alt: 6.0m
35km WSW of NEWCASTLE


  Time     Wind        Temp  DP   Baro     Rain since   Rain past  Vis(m), Cloud(base in m), Weather
  local        km/h                         9am  last   hr   10m    
Sun 09:00   SW  2/  7  13.8 11.0  1020.4    0.0   0.0   0.0   0.0   ----- 
Sun 09:30  ESE  4/  6  16.1 10.8  1020.0    0.0   0.0   0.0   0.0   ----- 
Sun 10:00    N 11/ 17  17.9 10.3  1019.7    0.0   0.0   0.0   0.0   ----- 
Sun 10:30   NE  9/ 17  18.7 10.3  1019.3    0.0   0.0   0.0   0.0   ----- 
Sun 11:00  NNE 13/ 22  19.2 10.7  1018.7    0.0   0.0   0.0   0.0   ----- 
Sun 11:30  NNE  9/ 17  20.0 10.1  1018.1    0.0   0.0   0.0   0.0   ----- 
Sun 12:00   NE  9/ 19  20.6 10.7  1017.3    0.0   0.0   0.0   0.0   ----- 
Sun 12:30  NNE  9/ 15  20.7  9.6  1016.4    0.0   0.0   0.0   0.0   ----- 
Sun 13:00    N  9/ 19  21.0  9.6  1015.8    0.0   0.0   0.0   0.0   ----- 
Sun 13:30  NNE  7/ 15  21.7  9.3  1015.1    0.0   0.0   0.0   0.0   ----- 
Sun 14:00    E 11/ 17  20.9 11.8  1014.4    0.0   0.0   0.0   0.0   ----- 
Sun 14:30    E  7/ 11  21.8 10.9  1013.8    0.0   0.0   0.0   0.0   ----- 

GOSFORD AWS

Site: 061425
Alt: 7.0m
km of


  Time     Wind        Temp  DP   Baro     Rain since   Rain past  Vis(m), Cloud(base in m), Weather
  local        km/h                         9am  last   hr   10m    
Sun 09:00    C  0/  2  13.4 10.2  ------    0.0   0.0   0.0   0.0   ----- 
Sun 09:30    S  2/  6  15.3 10.9  ------    0.0   0.0   0.0   0.0   ----- 
Sun 10:00  NNE 13/ 22  17.9 11.5  ------    0.0   0.0   0.0   0.0   ----- 
Sun 10:30   NE 17/ 30  18.2 11.7  ------    0.0   0.0   0.0   0.0   ----- 
Sun 11:00  NNE 11/ 26  19.1 11.9  ------    0.0   0.0   0.0   0.0   ----- 
Sun 11:30  NNE 15/ 28  19.3 11.1  ------    0.0   0.0   0.0   0.0   ----- 
Sun 12:00  NNE 13/ 26  20.1 11.6  ------    0.0   0.0   0.0   0.0   ----- 
Sun 12:30   NE 15/ 24  20.0 11.2  ------    0.0   0.0   0.0   0.0   ----- 
Sun 13:00   NE 17/ 26  19.7 10.9  ------    0.0   0.0   0.0   0.0   ----- 
Sun 13:30   NE 15/ 24  20.0 11.0  ------    0.0   0.0   0.0   0.0   ----- 
Sun 14:00  ENE 20/ 30  19.9 12.4  ------    0.0   0.0   0.0   0.0   ----- 
Sun 14:30  ENE 17/ 28  20.1 13.1  ------    0.0   0.0   0.0   0.0   ----- 

MAITLAND AIRPORT AWS

Site: 061428
Alt: 27.5m
37km NW of NEWCASTLE


  Time     Wind        Temp  DP   Baro     Rain since   Rain past  Vis(m), Cloud(base in m), Weather
  local        km/h                         9am  last   hr   10m    
Sun 09:00  WNW  9/ 13  10.9  7.8  1020.2    0.0   0.0   0.0   0.0   10000 
Sun 09:30  WNW  9/ 11  13.1  8.2  1020.0    0.0   0.0   0.0   0.0   10000 
Sun 10:00  WNW  7/ 11  14.6  8.5  1019.7    0.0   0.0   0.0   0.0   10000 
Sun 10:30  WNW  4/  7  16.4  9.3  1019.2    0.0   0.0   0.0   0.0   10000 
Sun 11:00  WNW  4/  9  17.4  9.1  1018.4    0.0   0.0   0.0   0.0   10000 
Sun 11:30  WNW  4/  9  19.7 10.4  1017.7    0.0   0.0   0.0   0.0   10000 
Sun 12:00    N  7/ 17  20.7  9.9  1016.9    0.0   0.0   0.0   0.0   10000 
Sun 12:30  NNE 11/ 19  22.2  8.7  1016.0    0.0   0.0   0.0   0.0   10000 
Sun 13:00    E 11/ 17  22.6  9.4  1015.3    0.0   0.0   0.0   0.0   10000 
Sun 13:30    E 13/ 20  22.8  8.5  1014.5    0.0   0.0   0.0   0.0   10000 
Sun 14:00  ENE 11/ 19  23.3  7.4  1014.0    0.0   0.0   0.0   0.0   10000 
Sun 14:30    E 13/ 24  23.6  6.8  1013.2    0.0   0.0   0.0   0.0   10000 

MANGROVE MOUNTAIN AWS

Site: 061375
Alt: 305.0m
19km NW of GOSFORD


  Time     Wind        Temp  DP   Baro     Rain since   Rain past  Vis(m), Cloud(base in m), Weather
  local        km/h                         9am  last   hr   10m    
Sun 09:00  NNE 11/ 19  15.1 11.9  ------    0.0   0.0   0.0   0.0   ----- 
Sun 09:30   NE 15/ 28  15.9 11.3  ------    0.0   0.0   0.0   0.0   ----- 
Sun 10:00  NNE 17/ 32  16.4 10.9  ------    0.0   0.0   0.0   0.0   ----- 
Sun 10:30  NNE 13/ 22  16.9 10.7  ------    0.0   0.0   0.0   0.0   ----- 
Sun 11:00  NNE 11/ 22  18.4 10.5  ------    0.0   0.0   0.0   0.0   ----- 
Sun 11:30   NE 13/ 20  18.7  8.9  ------    0.0   0.0   0.0   0.0   ----- 
Sun 12:00   NE 13/ 24  19.3  8.6  ------    0.0   0.0   0.0   0.0   ----- 
Sun 12:30   NE 11/ 19  19.7  8.1  ------    0.0   0.0   0.0   0.0   ----- 
Sun 13:00   NE 11/ 19  20.0  7.7  ------    0.0   0.0   0.0   0.0   ----- 
Sun 13:30  ENE 11/ 22  20.5  7.5  ------    0.0   0.0   0.0   0.0   ----- 
Sun 14:00   NE 11/ 22  20.9  7.5  ------    0.0   0.0   0.0   0.0   ----- 
Sun 14:30   NE 13/ 20  20.8  7.4  ------    0.0   0.0   0.0   0.0   ----- 

MERRIWA (ROSCOMMON)

Site: 061287
Alt: 375.0m
68km W of MUSWELLBROOK


  Time     Wind        Temp  DP   Baro     Rain since   Rain past  Vis(m), Cloud(base in m), Weather
  local        km/h                         9am  last   hr   10m    
Sun 09:00  SSE  6/  7  10.1  6.8  1020.2    0.0   0.0   0.0   0.0   ----- 
Sun 09:30    E  9/ 13  12.0  7.5  1019.8    0.0   0.0   0.0   0.0   ----- 
Sun 10:00  ESE 13/ 17  14.0  8.2  1019.5    0.0   0.0   0.0   0.0   ----- 
Sun 10:30  ESE 11/ 17  15.4  8.2  1019.1    0.0   0.0   0.0   0.0   ----- 
Sun 11:00  ESE  9/ 13  16.2  7.4  1018.5    0.0   0.0   0.0   0.0   ----- 
Sun 11:30  SSE  2/  9  17.8  7.2  1018.1    0.0   0.0   0.0   0.0   ----- 
Sun 12:00    N  7/ 11  19.8  6.9  1017.0    0.0   0.0   0.0   0.0   ----- 
Sun 12:30  NNE  7/ 11  20.9  6.1  1016.2    0.0   0.0   0.0   0.0   ----- 
Sun 13:00    N  6/ 13  22.0  5.4  1015.7    0.0   0.0   0.0   0.0   ----- 
Sun 13:30   NE  9/ 15  23.1  4.6  1015.0    0.0   0.0   0.0   0.0   ----- 
Sun 14:00   NE  6/ 11  23.8  4.2  1014.2    0.0   0.0   0.0   0.0   ----- 
Sun 14:30    N 20/ 24  24.9 -1.0  1013.7    0.0   0.0   0.0   0.0   ----- 

MURRURUNDI GAP AWS

Site: 061392
Alt: 729.4m
59km N of MUSWELLBROOK


  Time     Wind        Temp  DP   Baro     Rain since   Rain past  Vis(m), Cloud(base in m), Weather
  local        km/h                         9am  last   hr   10m    
Sun 09:00  NNE  2/  7  17.5 -0.2  1020.0    0.0   0.0   0.0   0.0   10000 
Sun 09:30   NW 11/ 15  18.4 -1.4  1019.9    0.0   0.0   0.0   0.0   10000 
Sun 10:00  NNW 11/ 15  19.6 -1.5  1019.6    0.0   0.0   0.0   0.0   10000 
Sun 10:30  NNW 15/ 26  19.6 -0.9  1019.2    0.0   0.0   0.0   0.0   10000 
Sun 11:00    N 20/ 26  20.3  0.2  1018.8    0.0   0.0   0.0   0.0   10000 
Sun 11:30   NW 24/ 33  20.4 -0.8  1018.2    0.0   0.0   0.0   0.0   10000 
Sun 12:00  WNW 35/ 45  19.7  0.2  1017.6    0.0   0.0   0.0   0.0   10000 
Sun 12:30  NNW 33/ 46  19.6 -0.4  1017.1    0.0   0.0   0.0   0.0   10000 
Sun 13:00   NW 35/ 48  20.4 -3.3  1016.3    0.0   0.0   0.0   0.0   10000 
Sun 13:29   NW 37/ 56  20.9 -2.9  1015.8    0.0   0.0  ----   0.0   10000 
Sun 13:30   NW 37/ 56  20.7 -2.4  1015.9    0.0   0.0   0.0   0.0   10000 
Sun 14:00  NNW 37/ 48  20.8 -5.1  1015.3    0.0   0.0   0.0   0.0   10000 
Sun 14:18   NW 35/ 54  21.2 -4.0  1015.2    0.0   0.0  ----   0.0   10000 
Sun 14:30   NW 39/ 56  20.9 -3.6  1015.1    0.0   0.0   0.0   0.0   10000 
Sun 14:33   NW 37/ 56  21.6 -3.0  1015.2    0.0   0.0  ----   0.0   10000 

NEWCASTLE NOBBYS SIGNAL STATION AWS

Site: 061055
Alt: 33.0m
2km NE of NEWCASTLE


  Time     Wind        Temp  DP   Baro     Rain since   Rain past  Vis(m), Cloud(base in m), Weather
  local        km/h                         9am  last   hr   10m    
Sun 09:00  NNW  9/ 11  13.4  9.8  ------    0.0   0.0   0.0   0.0   ----- 
Sun 09:30    N 11/ 13  14.5  9.7  ------    0.0   0.0   0.0   0.0   ----- 
Sun 10:00    N  2/  6  16.3 10.4  ------    0.0   0.0   0.0   0.0   ----- 
Sun 10:30  ENE  6/  9  17.2 11.2  ------    0.0   0.0   0.0   0.0   ----- 
Sun 11:00    E 11/ 13  17.9 12.8  ------    0.0   0.0   0.0   0.0   ----- 
Sun 11:30    E 11/ 15  18.4 12.8  ------    0.0   0.0   0.0   0.0   ----- 
Sun 12:00  ENE 13/ 19  20.6 12.6  ------    0.0   0.0   0.0   0.0   ----- 
Sun 12:30  ENE 17/ 24  19.9 13.1  ------    0.0   0.0   0.0   0.0   ----- 
Sun 13:00  ENE 22/ 30  19.6 13.8  ------    0.0   0.0   0.0   0.0   ----- 
Sun 13:30  ENE 20/ 28  19.8 13.7  ------    0.0   0.0   0.0   0.0   ----- 
Sun 14:00  ENE 28/ 33  19.5 13.7  ------    0.0   0.0   0.0   0.0   ----- 
Sun 14:30  ENE 28/ 33  19.5 13.7  ------    0.0   0.0   0.0   0.0   ----- 

NORAH HEAD AWS

Site: 061366
Alt: 18.8m
27km NE of GOSFORD


  Time     Wind        Temp  DP   Baro     Rain since   Rain past  Vis(m), Cloud(base in m), Weather
  local        km/h                         9am  last   hr   10m    
Sun 09:00    N  6/  7  16.3 11.0  1020.2    0.0   0.0   0.0   0.0   ----- 
Sun 09:30  NNE 11/ 13  18.2 12.4  1019.7    0.0   0.0   0.0   0.0   ----- 
Sun 10:00  NNE 20/ 22  19.1 12.8  1019.5    0.0   0.0   0.0   0.0   ----- 
Sun 10:30  NNE 22/ 26  19.4 12.7  1019.1    0.0   0.0   0.0   0.0   ----- 
Sun 11:00  NNE 22/ 24  19.8 13.0  1018.7    0.0   0.0   0.0   0.0   ----- 
Sun 11:30  NNE 24/ 28  19.9 13.4  1018.1    0.0   0.0   0.0   0.0   ----- 
Sun 12:00  NNE 26/ 30  20.1 13.6  1017.4    0.0   0.0   0.0   0.0   ----- 
Sun 12:30  NNE 24/ 28  19.8 13.7  1016.5    0.0   0.0   0.0   0.0   ----- 
Sun 13:00  NNE 20/ 24  20.8 14.9  1016.0    0.0   0.0   0.0   0.0   ----- 
Sun 13:30  NNE 32/ 35  20.4 14.5  1015.1    0.0   0.0   0.0   0.0   ----- 
Sun 14:00   NE 37/ 43  20.2 14.8  1014.3    0.0   0.0   0.0   0.0   ----- 
Sun 14:30   NE 39/ 48  19.9 14.7  1013.8    0.0   0.0   0.0   0.0   ----- 

PATERSON (TOCAL AWS)

Site: 061250
Alt: 30.0m
38km NNW of NEWCASTLE


  Time     Wind        Temp  DP   Baro     Rain since   Rain past  Vis(m), Cloud(base in m), Weather
  local        km/h                         9am  last   hr   10m    
Sun 09:00    E  6/  9  11.0  7.7  ------    0.0   0.0   0.0   0.0   ----- 
Sun 09:30    C  0/  7  14.1  9.5  ------    0.0   0.0   0.0   0.0   ----- 
Sun 10:00   NE  6/  9  16.0  9.7  ------    0.0   0.0   0.0   0.0   ----- 
Sun 10:30  ENE  6/  9  17.0  9.4  ------    0.0   0.0   0.0   0.0   ----- 
Sun 11:00   NE  6/  9  18.3  9.4  ------    0.0   0.0   0.0   0.0   ----- 
Sun 11:30  NNE  6/  9  19.7  9.9  ------    0.0   0.0   0.0   0.0   ----- 
Sun 12:00  ESE  7/ 11  21.4 11.1  ------    0.0   0.0   0.0   0.0   ----- 
Sun 12:30  ESE  9/ 15  22.4 10.2  ------    0.0   0.0   0.0   0.0   ----- 
Sun 13:00   NE 13/ 19  22.9  7.1  ------    0.0   0.0   0.0   0.0   ----- 
Sun 13:30   NE  9/ 13  23.2  6.1  ------    0.0   0.0   0.0   0.0   ----- 
Sun 14:00  NNE 13/ 20  24.1  6.4  ------    0.0   0.0   0.0   0.0   ----- 
Sun 14:30  NNE 11/ 15  23.6  5.5  ------    0.0   0.0   0.0   0.0   ----- 

SCONE AIRPORT AWS

Site: 061363
Alt: 221.4m
26km NNW of MUSWELLBROOK


  Time     Wind        Temp  DP   Baro     Rain since   Rain past  Vis(m), Cloud(base in m), Weather
  local        km/h                         9am  last   hr   10m    
Sun 09:00    C  0/  2  11.6  6.1  1019.9    0.0   0.0   0.0   0.0   10000 
Sun 09:30   SE  6/  9  12.7  6.1  1019.7    0.0   0.0   0.0   0.0   10000 
Sun 10:00  ESE  4/  9  14.3  6.6  1019.1    0.0   0.0   0.0   0.0   10000 
Sun 10:30    S  7/ 15  15.4  6.4  1018.6    0.0   0.0   0.0   0.0   10000 
Sun 11:00   SW  6/ 11  17.3  6.5  1018.0    0.0   0.0   0.0   0.0   10000 
Sun 11:30    S  6/ 11  18.2  5.8  1017.5    0.0   0.0   0.0   0.0   10000 
Sun 12:00    E  7/ 13  19.6  4.5  1016.7    0.0   0.0   0.0   0.0   10000 
Sun 12:30    S  6/ 11  20.7  3.4  1015.7    0.0   0.0   0.0   0.0   10000 
Sun 13:00   SE  6/  9  23.3  3.8  1014.8    0.0   0.0   0.0   0.0   10000 
Sun 13:30    E  4/  9  24.5  2.6  1014.3    0.0   0.0   0.0   0.0   10000 
Sun 14:00    N 11/ 15  25.6  1.7  1013.6    0.0   0.0   0.0   0.0   10000 
Sun 14:30   NW 22/ 32  26.3 -4.3  1013.3    0.0   0.0   0.0   0.0   10000 

SINGLETON (DEFENCE)

Site: 061430
Alt: 125.0m
km of


  Time     Wind        Temp  DP   Baro     Rain since   Rain past  Vis(m), Cloud(base in m), Weather
  local        km/h                         9am  last   hr   10m    
Sun 09:00  SSW  4/  7  12.4  7.1  ------    0.0   0.0   0.0   0.0   ----- 
Sun 09:30    W  6/  9  13.9  7.9  ------    0.0   0.0   0.0   0.0   ----- 
Sun 10:00    W  6/  7  15.4  7.9  ------    0.0   0.0   0.0   0.0   ----- 
Sun 10:30   NE  6/  9  16.4  7.3  ------    0.0   0.0   0.0   0.0   ----- 
Sun 11:00  ENE  7/ 11  17.5  6.4  ------    0.0   0.0   0.0   0.0   ----- 
Sun 11:30    N  7/ 15  18.3  5.5  ------    0.0   0.0   0.0   0.0   ----- 
Sun 12:00   NE  6/ 11  19.5  5.6  ------    0.0   0.0   0.0   0.0   ----- 
Sun 12:30  NNE  7/ 11  20.3  5.1  ------    0.0   0.0   0.0   0.0   ----- 
Sun 13:00   NE  7/ 17  21.2  4.7  ------    0.0   0.0   0.0   0.0   ----- 
Sun 13:30    N  6/ 15  22.7  4.2  ------    0.0   0.0   0.0   0.0   ----- 
Sun 14:00    E  7/ 17  23.0  4.5  ------    0.0   0.0   0.0   0.0   ----- 
Sun 14:30   NE  9/ 15  23.2  4.2  ------    0.0   0.0   0.0   0.0   ----- 

WILLIAMTOWN RAAF

Site: 061078
Alt: 7.5m
16km NNE of NEWCASTLE


  Time     Wind        Temp  DP   Baro     Rain since   Rain past  Vis(m), Cloud(base in m), Weather
  local        km/h                         9am  last   hr   10m    
Sun 09:00    N  2/  9  14.0  8.6  1020.4    0.0   0.0   0.0   0.0   10000 
Sun 09:30  NNE  9/ 13  16.2  9.2  1019.9    0.0   0.0   0.0   0.0   10000 
Sun 10:00  NNE  9/ 15  18.2 10.3  1019.6    0.0   0.0   0.0   0.0   10000 
Sun 10:30  NNE 17/ 24  19.1 10.9  1019.0    0.0   0.0   0.0   0.0   10000 
Sun 11:00    N 20/ 33  19.9 11.1  1018.4    0.0   0.0   0.0   0.0   10000 
Sun 11:30  NNE 15/ 28  20.6 11.0  1017.8    0.0   0.0   0.0   0.0   10000 
Sun 12:00    N 19/ 30  21.2 10.4  1017.0    0.0   0.0   0.0   0.0   10000 
Sun 12:30  NNE 17/ 28  21.7  9.6  1016.4    0.0   0.0   0.0   0.0   10000 
Sun 13:00    N 19/ 28  22.0  9.2  1015.5    0.0   0.0   0.0   0.0   10000 
Sun 13:30   NE 17/ 32  22.4  9.6  1014.9    0.0   0.0   0.0   0.0   10000 
Sun 14:00  ENE 20/ 28  22.3  9.5  1014.2    0.0   0.0   0.0   0.0   10000 
Sun 14:30   NE 17/ 28  22.6 11.0  1013.7    0.0   0.0   0.0   0.0   10000